AAY2207 KSFB-KATW
Flight info
| Callsign | AAY2207 |
|---|---|
| Flight time | N/A |
| Altitude | 34000 |
| Route | DCT WORMS DCT JEEMY DCT ACCHE DCT PAINN DCT SHRKS Q77 TEUFL/N0462F350 Q77 WIGVO DCT IRQ/N0466F340 J99 VXV DCT IIU J89 BAE DCT CORIR DCT |
| Aircraft | A320/M-SDE3FGHIRWY/LB1 |
Departure
| Time | 2026-05-08 00:14 |
|---|---|
| Airport | Orlando Sanford International Airport (KSFB) |
Arrival
| Time | N/A |
|---|---|
| Airport | Appleton International Airport (KATW) |
| Time | Latitude | Longitude | Altitude | Speed | Heading |
|---|---|---|---|---|---|
| 2026-05-07 23:32 | 28.77623 | -81.24278 | 61 ft | 0 kts | 277° |
| 2026-05-07 23:56 | 28.77623 | -81.24276 | 64 ft | 1 kts | 277° |
| 2026-05-07 23:57 | 28.77622 | -81.24259 | 57 ft | 3 kts | 268° |
| 2026-05-07 23:57 | 28.77624 | -81.24236 | 61 ft | 3 kts | 255° |
| 2026-05-07 23:57 | 28.77630 | -81.24214 | 58 ft | 3 kts | 251° |
| 2026-05-07 23:57 | 28.77634 | -81.24198 | 55 ft | 1 kts | 259° |
| 2026-05-07 23:58 | 28.77635 | -81.24197 | 55 ft | 0 kts | 259° |
| 2026-05-08 00:02 | 28.77635 | -81.24198 | 64 ft | 0 kts | 260° |
| 2026-05-08 00:02 | 28.77649 | -81.24217 | 58 ft | 7 kts | 340° |
| 2026-05-08 00:03 | 28.77718 | -81.24212 | 61 ft | 10 kts | 5° |
| 2026-05-08 00:03 | 28.77766 | -81.24244 | 62 ft | 8 kts | 295° |
| 2026-05-08 00:03 | 28.77766 | -81.24312 | 64 ft | 9 kts | 266° |
| 2026-05-08 00:03 | 28.77764 | -81.24388 | 64 ft | 10 kts | 269° |
| 2026-05-08 00:04 | 28.77764 | -81.24474 | 64 ft | 11 kts | 275° |
| 2026-05-08 00:04 | 28.77818 | -81.24532 | 59 ft | 12 kts | 356° |
| 2026-05-08 00:04 | 28.77900 | -81.24534 | 59 ft | 11 kts | 359° |
| 2026-05-08 00:04 | 28.77982 | -81.24534 | 64 ft | 12 kts | 359° |
| 2026-05-08 00:05 | 28.78060 | -81.24501 | 60 ft | 13 kts | 63° |
| 2026-05-08 00:05 | 28.78064 | -81.24398 | 63 ft | 13 kts | 90° |
| 2026-05-08 00:05 | 28.78064 | -81.24292 | 64 ft | 13 kts | 90° |
| 2026-05-08 00:05 | 28.78065 | -81.24185 | 64 ft | 14 kts | 89° |
| 2026-05-08 00:06 | 28.78065 | -81.24074 | 64 ft | 14 kts | 90° |
| 2026-05-08 00:06 | 28.78065 | -81.23957 | 64 ft | 15 kts | 90° |
| 2026-05-08 00:06 | 28.78065 | -81.23837 | 65 ft | 15 kts | 90° |
| 2026-05-08 00:06 | 28.78064 | -81.23713 | 64 ft | 16 kts | 90° |
| 2026-05-08 00:07 | 28.78064 | -81.23587 | 64 ft | 16 kts | 90° |
| 2026-05-08 00:07 | 28.78035 | -81.23478 | 57 ft | 14 kts | 124° |
| 2026-05-08 00:07 | 28.78011 | -81.23380 | 58 ft | 12 kts | 90° |
| 2026-05-08 00:07 | 28.78012 | -81.23279 | 60 ft | 14 kts | 90° |
| 2026-05-08 00:08 | 28.78011 | -81.23157 | 61 ft | 17 kts | 89° |
| 2026-05-08 00:08 | 28.78013 | -81.23015 | 60 ft | 19 kts | 88° |
| 2026-05-08 00:08 | 28.78014 | -81.22855 | 63 ft | 21 kts | 90° |
| 2026-05-08 00:08 | 28.78011 | -81.22700 | 60 ft | 18 kts | 90° |
| 2026-05-08 00:09 | 28.78011 | -81.22563 | 61 ft | 16 kts | 90° |
| 2026-05-08 00:09 | 28.78011 | -81.22443 | 62 ft | 14 kts | 90° |
| 2026-05-08 00:09 | 28.78011 | -81.22338 | 64 ft | 12 kts | 89° |
| 2026-05-08 00:09 | 28.78014 | -81.22241 | 62 ft | 12 kts | 83° |
| 2026-05-08 00:10 | 28.78054 | -81.22178 | 63 ft | 9 kts | 23° |
| 2026-05-08 00:10 | 28.78111 | -81.22172 | 64 ft | 9 kts | 360° |
| 2026-05-08 00:10 | 28.78169 | -81.22186 | 61 ft | 7 kts | 328° |
| 2026-05-08 00:10 | 28.78180 | -81.22239 | 63 ft | 8 kts | 262° |
| 2026-05-08 00:11 | 28.78179 | -81.22264 | 60 ft | 0 kts | 269° |
| 2026-05-08 00:11 | 28.78179 | -81.22265 | 60 ft | 0 kts | 269° |
| 2026-05-08 00:13 | 28.78179 | -81.22329 | 61 ft | 32 kts | 270° |
| 2026-05-08 00:13 | 28.78179 | -81.22853 | 62 ft | 97 kts | 270° |
| 2026-05-08 00:13 | 28.78178 | -81.23829 | 62 ft | 147 kts | 270° |
| 2026-05-08 00:14 | 28.78178 | -81.25145 | 147 ft | 180 kts | 270° |
| 2026-05-08 00:14 | 28.78186 | -81.26586 | 648 ft | 187 kts | 271° |
| 2026-05-08 00:14 | 28.78201 | -81.28054 | 1375 ft | 184 kts | 272° |
| 2026-05-08 00:14 | 28.78212 | -81.29490 | 2109 ft | 177 kts | 270° |
| 2026-05-08 00:15 | 28.78275 | -81.30943 | 2403 ft | 194 kts | 285° |
| 2026-05-08 00:15 | 28.79041 | -81.32281 | 2620 ft | 217 kts | 322° |
| 2026-05-08 00:15 | 28.80520 | -81.32944 | 2933 ft | 238 kts | 343° |
| 2026-05-08 00:15 | 28.82158 | -81.33371 | 3523 ft | 244 kts | 344° |
| 2026-05-08 00:16 | 28.83832 | -81.33765 | 4167 ft | 247 kts | 346° |
| 2026-05-08 00:16 | 28.85563 | -81.34169 | 4619 ft | 263 kts | 347° |
| 2026-05-08 00:16 | 28.87014 | -81.34510 | 5039 ft | 272 kts | 345° |
| 2026-05-08 00:17 | 28.87528 | -81.34625 | 5205 ft | 274 kts | 348° |
| 2026-05-08 00:18 | 28.89390 | -81.35043 | 5925 ft | 277 kts | 346° |
| 2026-05-08 00:18 | 28.91281 | -81.35499 | 6644 ft | 279 kts | 346° |
| 2026-05-08 00:18 | 28.93186 | -81.35974 | 7326 ft | 281 kts | 345° |
| 2026-05-08 00:18 | 28.95110 | -81.36459 | 8017 ft | 284 kts | 345° |
| 2026-05-08 00:19 | 28.97045 | -81.36950 | 8707 ft | 286 kts | 344° |
| 2026-05-08 00:19 | 28.98996 | -81.37443 | 9443 ft | 287 kts | 344° |
| 2026-05-08 00:19 | 29.00945 | -81.37962 | 10130 ft | 287 kts | 339° |
| 2026-05-08 00:19 | 29.02837 | -81.38877 | 10325 ft | 305 kts | 330° |
| 2026-05-08 00:20 | 29.04800 | -81.40014 | 10444 ft | 327 kts | 330° |
| 2026-05-08 00:20 | 29.06888 | -81.41228 | 10583 ft | 346 kts | 330° |
| 2026-05-08 00:20 | 29.09104 | -81.42394 | 10971 ft | 356 kts | 338° |
| 2026-05-08 00:20 | 29.11521 | -81.43061 | 11477 ft | 365 kts | 349° |
| 2026-05-08 00:21 | 29.14076 | -81.43314 | 12004 ft | 371 kts | 351° |
| 2026-05-08 00:21 | 29.16663 | -81.43549 | 12530 ft | 374 kts | 351° |
| 2026-05-08 00:21 | 29.19274 | -81.43791 | 13065 ft | 378 kts | 351° |
| 2026-05-08 00:21 | 29.21910 | -81.44041 | 13589 ft | 382 kts | 350° |
| 2026-05-08 00:22 | 29.24571 | -81.44295 | 14082 ft | 385 kts | 350° |
| 2026-05-08 00:22 | 29.27250 | -81.44557 | 14612 ft | 387 kts | 349° |
| 2026-05-08 00:22 | 29.29933 | -81.44818 | 15167 ft | 387 kts | 349° |
| 2026-05-08 00:22 | 29.32620 | -81.45075 | 15692 ft | 388 kts | 349° |
| 2026-05-08 00:23 | 29.35317 | -81.45330 | 16204 ft | 390 kts | 349° |
| 2026-05-08 00:23 | 29.38024 | -81.45585 | 16715 ft | 391 kts | 349° |
| 2026-05-08 00:23 | 29.40743 | -81.45842 | 17212 ft | 393 kts | 349° |
| 2026-05-08 00:23 | 29.43470 | -81.46101 | 17704 ft | 394 kts | 349° |
| 2026-05-08 00:24 | 29.46208 | -81.46361 | 18186 ft | 396 kts | 348° |
| 2026-05-08 00:24 | 29.48962 | -81.46625 | 18601 ft | 398 kts | 348° |
| 2026-05-08 00:24 | 29.51725 | -81.46894 | 19001 ft | 400 kts | 348° |
| 2026-05-08 00:24 | 29.54504 | -81.47170 | 19383 ft | 402 kts | 348° |
| 2026-05-08 00:25 | 29.57272 | -81.47440 | 19762 ft | 405 kts | 348° |